createdAt,value
2019-01-16T00:01:45.297Z,3.00
2019-01-16T00:04:36.256Z,2.70
2019-01-16T00:07:16.846Z,2.80
2019-01-16T00:10:10.848Z,3.30
2019-01-16T00:13:10.954Z,2.83
2019-01-16T00:15:57.868Z,3.07
2019-01-16T00:18:37.292Z,3.20
2019-01-16T00:21:25.497Z,2.93
2019-01-16T00:24:19.892Z,2.67
2019-01-16T00:27:23.205Z,3.30
2019-01-16T00:30:07.896Z,2.77
2019-01-16T00:32:51.675Z,2.83
2019-01-16T00:35:31.496Z,3.10
2019-01-16T00:38:18.646Z,3.00
2019-01-16T00:41:02.559Z,3.20
2019-01-16T00:43:50.773Z,2.80
2019-01-16T00:46:40.064Z,2.70
2019-01-16T00:49:31.358Z,2.73
2019-01-16T00:52:27.259Z,3.03
2019-01-16T00:55:14.329Z,2.70
2019-01-16T00:57:58.509Z,2.83
2019-01-16T01:00:43.824Z,2.83
2019-01-16T01:03:37.973Z,3.07
2019-01-16T01:06:31.089Z,2.50
2019-01-16T01:09:37.843Z,2.87
2019-01-16T01:12:38.264Z,2.63
2019-01-16T01:15:24.572Z,2.73
2019-01-16T01:18:18.897Z,2.70
2019-01-16T01:21:09.848Z,3.30
2019-01-16T01:23:56.900Z,2.40
2019-01-16T01:26:44.128Z,2.57
2019-01-16T01:29:31.174Z,2.60
2019-01-16T01:32:34.576Z,3.03
2019-01-16T01:35:28.920Z,3.10
2019-01-16T01:38:15.786Z,2.60
2019-01-16T01:41:13.349Z,2.87
2019-01-16T01:44:00.164Z,2.80
2019-01-16T01:46:39.845Z,2.83
2019-01-16T01:49:25.595Z,2.97
2019-01-16T01:52:26.098Z,3.07
2019-01-16T01:55:11.263Z,2.83
2019-01-16T01:58:05.951Z,3.07
2019-01-16T02:00:54.118Z,3.00
2019-01-16T02:03:41.963Z,2.80
2019-01-16T02:06:29.006Z,2.90
2019-01-16T02:09:16.185Z,3.07
2019-01-16T02:12:03.482Z,2.97
2019-01-16T02:14:50.541Z,3.20
2019-01-16T02:17:37.564Z,2.77
2019-01-16T02:20:33.206Z,2.97
2019-01-16T02:23:19.001Z,2.87
2019-01-16T02:26:10.509Z,2.90
2019-01-16T02:29:04.663Z,3.20
2019-01-16T02:32:03.467Z,2.90
2019-01-16T02:34:40.477Z,2.90
2019-01-16T02:37:27.368Z,3.03
2019-01-16T02:40:04.473Z,3.30
2019-01-16T02:42:44.726Z,2.73
2019-01-16T02:45:51.275Z,3.77
2019-01-16T02:48:55.643Z,3.00
2019-01-16T02:51:30.096Z,3.33
2019-01-16T02:54:15.502Z,3.33
2019-01-16T02:57:02.695Z,2.97
2019-01-16T02:59:56.900Z,2.90
2019-01-16T03:02:43.004Z,2.87
2019-01-16T03:05:29.874Z,2.80
2019-01-16T03:08:15.016Z,2.60
2019-01-16T03:10:54.969Z,2.67
2019-01-16T03:13:41.300Z,3.20
2019-01-16T03:16:28.228Z,2.47
2019-01-16T03:19:09.887Z,2.70
2019-01-16T03:22:03.880Z,2.53
2019-01-16T03:24:52.057Z,2.30
2019-01-16T03:27:31.329Z,2.87
2019-01-16T03:30:31.806Z,2.73
2019-01-16T03:33:11.070Z,2.30
2019-01-16T03:35:59.249Z,2.33
2019-01-16T03:39:05.462Z,2.37
2019-01-16T03:41:56.821Z,2.73
2019-01-16T03:44:44.017Z,2.70
2019-01-16T03:47:31.162Z,2.33
2019-01-16T03:50:15.611Z,2.60
2019-01-16T03:53:16.125Z,2.90
2019-01-16T03:56:03.023Z,2.60
2019-01-16T03:58:54.210Z,3.43
2019-01-16T04:01:54.157Z,2.73
2019-01-16T04:04:44.628Z,2.47
2019-01-16T04:07:38.658Z,2.57
2019-01-16T04:10:23.851Z,3.00
2019-01-16T04:13:12.015Z,2.67
2019-01-16T04:15:58.942Z,3.20
2019-01-16T04:18:47.117Z,3.37
2019-01-16T04:21:25.968Z,3.10
2019-01-16T04:24:14.128Z,2.97
2019-01-16T04:27:17.496Z,2.80
2019-01-16T04:30:02.662Z,2.67
2019-01-16T04:33:02.929Z,3.23
2019-01-16T04:35:51.096Z,3.03
2019-01-16T04:38:42.183Z,3.40
2019-01-16T04:41:33.593Z,3.10
2019-01-16T04:44:20.582Z,3.10
2019-01-16T04:47:11.292Z,3.40
2019-01-16T04:49:59.114Z,3.10
2019-01-16T04:52:50.400Z,3.13
2019-01-16T04:55:37.265Z,3.40
2019-01-16T04:58:34.757Z,3.20
2019-01-16T05:01:34.852Z,2.63
2019-01-16T05:04:29.160Z,3.73
2019-01-16T05:07:16.807Z,3.30
2019-01-16T05:10:03.951Z,3.13
2019-01-16T05:12:42.576Z,3.13
2019-01-16T05:15:39.869Z,4.60
2019-01-16T05:18:41.546Z,3.87
2019-01-16T05:21:34.127Z,3.20
2019-01-16T05:24:18.008Z,3.00
2019-01-16T05:27:00.098Z,3.40
2019-01-16T05:30:00.239Z,3.40
2019-01-16T05:32:42.708Z,3.20
2019-01-16T05:35:29.508Z,4.00
2019-01-16T05:38:16.756Z,3.77
2019-01-16T05:41:10.991Z,3.60
2019-01-16T05:43:58.018Z,9.00
2019-01-16T05:46:36.809Z,4.30
2019-01-16T05:49:19.118Z,3.97
2019-01-16T05:52:07.312Z,3.47
2019-01-16T05:55:10.775Z,4.00
2019-01-16T05:58:01.750Z,3.40
2019-01-16T06:00:52.725Z,3.70
2019-01-16T06:03:40.915Z,6.00
2019-01-16T06:06:29.858Z,6.10
2019-01-16T06:09:17.228Z,5.33
2019-01-16T06:12:04.461Z,3.33
2019-01-16T06:14:58.729Z,3.73
2019-01-16T06:17:36.526Z,3.23
2019-01-16T06:20:27.065Z,3.17
2019-01-16T06:23:10.407Z,3.43
2019-01-16T06:26:13.997Z,3.30
2019-01-16T06:29:20.281Z,3.17
2019-01-16T06:32:07.380Z,5.20
2019-01-16T06:34:51.640Z,3.17
2019-01-16T06:37:43.000Z,2.70
2019-01-16T06:40:43.276Z,3.10
2019-01-16T06:43:40.530Z,3.20
2019-01-16T06:46:31.480Z,2.97
2019-01-16T06:49:11.612Z,3.40
2019-01-16T06:51:59.793Z,4.10
2019-01-16T06:54:46.155Z,3.50
2019-01-16T06:57:29.685Z,5.57
2019-01-16T07:00:05.665Z,8.23
2019-01-16T07:02:52.487Z,5.13
2019-01-16T07:05:38.288Z,4.10
2019-01-16T07:08:26.494Z,3.73
2019-01-16T07:11:14.680Z,3.77
2019-01-16T07:14:02.894Z,4.07
2019-01-16T07:16:50.017Z,4.20
2019-01-16T07:19:41.363Z,4.23
2019-01-16T07:22:32.501Z,4.00
2019-01-16T07:25:32.996Z,3.87
2019-01-16T07:28:15.749Z,4.20
2019-01-16T07:31:06.933Z,4.27
2019-01-16T07:33:52.239Z,4.73
2019-01-16T07:36:34.060Z,17.60
2019-01-16T07:39:31.552Z,5.10
2019-01-16T07:42:12.885Z,3.77
2019-01-16T07:45:19.528Z,4.20
2019-01-16T07:48:14.703Z,10.63
2019-01-16T07:51:08.846Z,7.63
2019-01-16T07:54:03.164Z,4.90
2019-01-16T07:56:51.340Z,4.60
2019-01-16T07:59:34.097Z,4.53
2019-01-16T08:02:21.173Z,3.90
2019-01-16T08:05:09.373Z,4.53
2019-01-16T08:07:56.012Z,4.87
2019-01-16T08:10:41.653Z,4.40
2019-01-16T08:13:48.117Z,5.03
2019-01-16T08:16:42.298Z,4.80
2019-01-16T08:19:39.630Z,5.90
2019-01-16T08:22:31.124Z,5.23
2019-01-16T08:25:19.299Z,6.00
2019-01-16T08:28:06.866Z,6.57
2019-01-16T08:30:58.129Z,5.63
2019-01-16T08:33:47.585Z,5.20
2019-01-16T08:36:47.570Z,4.90
2019-01-16T08:39:28.765Z,5.50
2019-01-16T08:42:16.956Z,4.80
2019-01-16T08:45:03.889Z,5.40
2019-01-16T08:47:51.060Z,6.10
2019-01-16T08:50:48.475Z,6.03
2019-01-16T08:53:35.720Z,6.53
2019-01-16T08:56:36.609Z,5.53
2019-01-16T08:59:18.881Z,5.90
2019-01-16T09:02:05.850Z,6.77
2019-01-16T09:04:52.918Z,5.77
2019-01-16T09:07:41.128Z,5.67
2019-01-16T09:10:34.816Z,5.87
2019-01-16T09:13:41.500Z,5.57
2019-01-16T09:16:21.146Z,5.70
2019-01-16T09:19:18.333Z,6.20
2019-01-16T09:22:06.535Z,6.33
2019-01-16T09:25:01.853Z,5.80
2019-01-16T09:28:02.343Z,5.37
2019-01-16T09:31:05.720Z,5.50
2019-01-16T09:33:56.763Z,5.80
2019-01-16T09:36:56.944Z,6.43
2019-01-16T09:39:47.955Z,7.27
2019-01-16T09:42:39.016Z,8.87
2019-01-16T09:45:29.177Z,5.93
2019-01-16T09:48:15.179Z,5.60
2019-01-16T09:51:09.938Z,5.90
2019-01-16T09:53:57.680Z,5.20
2019-01-16T09:57:00.954Z,5.90
2019-01-16T10:00:19.564Z,5.80
2019-01-16T10:03:06.641Z,6.07
2019-01-16T10:06:13.177Z,5.50
2019-01-16T10:09:04.601Z,5.50
2019-01-16T10:11:52.812Z,5.90
2019-01-16T10:14:36.967Z,5.13
2019-01-16T10:17:17.636Z,5.03
2019-01-16T10:20:08.993Z,5.27
2019-01-16T10:23:00.084Z,5.50
2019-01-16T10:25:36.356Z,5.87
2019-01-16T10:28:30.885Z,14.10
2019-01-16T10:31:19.278Z,5.17
2019-01-16T10:34:07.481Z,4.97
2019-01-16T10:36:54.265Z,4.87
2019-01-16T10:39:32.513Z,4.50
2019-01-16T10:42:22.204Z,4.23
2019-01-16T10:45:10.401Z,4.53
2019-01-16T10:47:45.179Z,10.60
2019-01-16T10:50:32.983Z,9.17
2019-01-16T10:53:22.999Z,5.83
2019-01-16T10:56:17.326Z,5.13
2019-01-16T10:59:05.496Z,4.20
2019-01-16T11:02:08.733Z,3.63
2019-01-16T11:04:50.719Z,3.77
2019-01-16T11:07:45.525Z,3.60
2019-01-16T11:10:24.240Z,3.80
2019-01-16T11:13:11.269Z,4.10
2019-01-16T11:15:58.405Z,6.33
2019-01-16T11:18:52.356Z,4.20
2019-01-16T11:21:50.085Z,4.07
2019-01-16T11:24:37.397Z,3.97
2019-01-16T11:27:24.455Z,3.67
2019-01-16T11:30:31.048Z,3.43
2019-01-16T11:33:15.799Z,3.70
2019-01-16T11:36:04.004Z,3.00
2019-01-16T11:38:50.834Z,3.10
2019-01-16T11:41:26.185Z,3.10
2019-01-16T11:44:14.418Z,3.17
2019-01-16T11:47:02.575Z,3.27
2019-01-16T11:49:50.813Z,3.30
2019-01-16T11:52:37.880Z,3.23
2019-01-16T11:55:22.304Z,3.20
2019-01-16T11:58:11.833Z,3.37
2019-01-16T12:01:01.161Z,3.07
2019-01-16T12:03:58.458Z,2.90
2019-01-16T12:07:04.855Z,3.40
2019-01-16T12:09:58.943Z,2.97
2019-01-16T12:12:45.723Z,3.03
2019-01-16T12:15:33.936Z,3.23
2019-01-16T12:18:29.224Z,3.40
2019-01-16T12:21:26.323Z,3.33
2019-01-16T12:24:10.616Z,3.27
2019-01-16T12:26:57.792Z,3.20
2019-01-16T12:29:49.136Z,3.30
2019-01-16T12:32:47.010Z,3.23
2019-01-16T12:35:39.575Z,3.70
2019-01-16T12:38:26.445Z,3.60
2019-01-16T12:41:26.808Z,3.80
2019-01-16T12:44:09.887Z,4.10
2019-01-16T12:46:56.742Z,3.30
2019-01-16T12:49:57.272Z,2.90
2019-01-16T12:52:38.559Z,3.00
2019-01-16T12:55:42.457Z,3.17
2019-01-16T12:58:49.043Z,3.47
2019-01-16T13:01:37.233Z,3.57
2019-01-16T13:04:28.237Z,3.30
2019-01-16T13:07:15.329Z,3.03
2019-01-16T13:10:06.200Z,3.60
2019-01-16T13:13:06.432Z,3.10
2019-01-16T13:15:53.524Z,3.50
2019-01-16T13:19:00.379Z,3.33
2019-01-16T13:21:48.573Z,3.60
2019-01-16T13:24:35.460Z,3.47
2019-01-16T13:27:35.705Z,3.63
2019-01-16T13:30:24.019Z,3.50
2019-01-16T13:33:23.398Z,3.90
2019-01-16T13:36:03.277Z,3.73
2019-01-16T13:38:50.466Z,3.50
2019-01-16T13:41:26.383Z,3.53
2019-01-16T13:44:14.484Z,4.00
2019-01-16T13:47:05.995Z,4.00
2019-01-16T13:49:56.975Z,3.93
2019-01-16T13:52:43.791Z,3.40
2019-01-16T13:55:34.882Z,3.37
2019-01-16T13:58:35.628Z,3.60
2019-01-16T14:01:33.215Z,3.87
2019-01-16T14:04:24.209Z,3.77
2019-01-16T14:07:24.292Z,3.67
2019-01-16T14:10:21.604Z,3.70
2019-01-16T14:13:06.892Z,3.33
2019-01-16T14:15:53.768Z,2.90
2019-01-16T14:18:40.806Z,3.60
2019-01-16T14:21:34.908Z,3.40
2019-01-16T14:24:21.269Z,4.00
2019-01-16T14:27:18.735Z,3.70
2019-01-16T14:30:13.049Z,3.00
2019-01-16T14:33:01.906Z,3.23
2019-01-16T14:35:41.311Z,3.30
2019-01-16T14:38:32.271Z,3.50
2019-01-16T14:41:11.273Z,3.17
2019-01-16T14:44:02.503Z,3.53
2019-01-16T14:46:55.452Z,3.23
2019-01-16T14:49:42.504Z,3.20
2019-01-16T14:52:27.632Z,2.57
2019-01-16T14:55:15.887Z,2.90
2019-01-16T14:58:19.348Z,2.70
2019-01-16T15:01:04.668Z,3.13
2019-01-16T15:04:02.531Z,2.83
2019-01-16T15:06:50.966Z,2.60
2019-01-16T15:09:50.156Z,2.97
2019-01-16T15:12:41.373Z,2.77
2019-01-16T15:15:35.860Z,2.93
2019-01-16T15:18:22.986Z,3.07
2019-01-16T15:21:10.073Z,4.20
2019-01-16T15:24:05.098Z,3.97
2019-01-16T15:26:52.213Z,4.40
2019-01-16T15:29:52.589Z,4.43
2019-01-16T15:32:32.455Z,5.00
2019-01-16T15:35:23.699Z,4.80
2019-01-16T15:37:59.931Z,7.00
2019-01-16T15:40:51.186Z,6.53
2019-01-16T15:43:38.065Z,13.13
2019-01-16T15:46:26.258Z,11.87
2019-01-16T15:49:20.372Z,12.23
2019-01-16T15:52:26.960Z,13.57
2019-01-16T15:55:15.644Z,6.83
2019-01-16T15:58:07.243Z,6.50
2019-01-16T16:00:59.215Z,8.17
2019-01-16T16:03:47.400Z,21.03
2019-01-16T16:06:47.560Z,9.10
2019-01-16T16:09:34.432Z,9.80
2019-01-16T16:12:41.301Z,10.30
2019-01-16T16:15:33.524Z,11.10
2019-01-16T16:18:17.043Z,6.70
2019-01-16T16:21:19.216Z,6.73
2019-01-16T16:24:10.586Z,5.23
2019-01-16T16:26:58.799Z,5.30
2019-01-16T16:29:46.964Z,5.17
2019-01-16T16:32:38.213Z,4.80
2019-01-16T16:35:25.413Z,9.17
2019-01-16T16:38:22.835Z,8.00
2019-01-16T16:41:11.314Z,5.73
2019-01-16T16:43:59.500Z,5.73
2019-01-16T16:46:50.820Z,8.33
2019-01-16T16:49:25.332Z,7.73
2019-01-16T16:52:16.753Z,6.13
2019-01-16T16:55:03.801Z,6.80
2019-01-16T16:57:57.856Z,6.80
2019-01-16T17:00:39.117Z,7.07
2019-01-16T17:03:27.000Z,7.23
2019-01-16T17:06:11.196Z,5.70
2019-01-16T17:08:58.021Z,5.17
2019-01-16T17:11:51.165Z,4.00
2019-01-16T17:14:54.473Z,4.20
2019-01-16T17:17:45.500Z,5.93
2019-01-16T17:20:35.789Z,6.50
2019-01-16T17:23:26.968Z,5.63
2019-01-16T17:26:09.577Z,4.80
2019-01-16T17:29:06.881Z,5.43
2019-01-16T17:31:50.176Z,5.10
2019-01-16T17:34:44.616Z,5.37
2019-01-16T17:37:31.549Z,5.00
2019-01-16T17:40:10.625Z,5.43
2019-01-16T17:43:17.497Z,8.67
2019-01-16T17:46:05.019Z,9.13
2019-01-16T17:48:55.984Z,5.97
2019-01-16T17:51:50.313Z,6.10
2019-01-16T17:54:50.704Z,6.10
2019-01-16T17:57:42.014Z,6.50
2019-01-16T18:00:36.491Z,9.87
2019-01-16T18:03:23.481Z,7.00
2019-01-16T18:06:11.699Z,6.97
2019-01-16T18:09:07.313Z,6.60
2019-01-16T18:12:00.826Z,7.93
2019-01-16T18:14:54.857Z,7.97
2019-01-16T18:17:42.044Z,7.93
2019-01-16T18:20:50.941Z,7.90
2019-01-16T18:23:47.779Z,8.47
2019-01-16T18:26:42.280Z,8.30
2019-01-16T18:29:20.687Z,9.17
2019-01-16T18:32:08.055Z,11.10
2019-01-16T18:34:57.107Z,10.10
2019-01-16T18:37:51.193Z,9.80
2019-01-16T18:40:43.260Z,9.10
2019-01-16T18:43:29.388Z,9.77
2019-01-16T18:46:16.691Z,8.80
2019-01-16T18:49:05.165Z,13.13
2019-01-16T18:51:51.983Z,13.50
2019-01-16T18:54:38.948Z,14.57
2019-01-16T18:57:32.061Z,13.53
2019-01-16T19:00:29.391Z,12.30
2019-01-16T19:03:16.228Z,14.23
2019-01-16T19:06:07.993Z,13.10
2019-01-16T19:08:53.237Z,11.03
2019-01-16T19:11:40.085Z,10.87
2019-01-16T19:14:27.148Z,8.90
2019-01-16T19:17:30.492Z,8.60
2019-01-16T19:20:19.216Z,8.13
2019-01-16T19:23:13.219Z,12.23
2019-01-16T19:26:00.924Z,11.73
2019-01-16T19:28:48.201Z,15.33
2019-01-16T19:31:42.549Z,20.20
2019-01-16T19:34:25.560Z,14.67
2019-01-16T19:37:18.995Z,16.53
2019-01-16T19:40:01.118Z,13.60
2019-01-16T19:42:58.334Z,14.17
2019-01-16T19:45:45.456Z,14.13
2019-01-16T19:48:32.528Z,14.33
2019-01-16T19:51:20.822Z,14.30
2019-01-16T19:54:13.060Z,13.43
2019-01-16T19:56:58.382Z,15.67
2019-01-16T19:59:37.682Z,31.37
2019-01-16T20:02:25.077Z,28.47
2019-01-16T20:05:25.389Z,18.77
2019-01-16T20:08:25.507Z,10.63
2019-01-16T20:11:12.460Z,11.83
2019-01-16T20:14:03.850Z,12.13
2019-01-16T20:16:58.720Z,9.50
2019-01-16T20:19:48.865Z,8.97
2019-01-16T20:22:35.983Z,9.47
2019-01-16T20:25:23.726Z,8.60
2019-01-16T20:28:11.085Z,7.90
2019-01-16T20:30:59.231Z,8.03
2019-01-16T20:33:40.267Z,8.47
2019-01-16T20:36:21.471Z,7.97
2019-01-16T20:39:08.284Z,8.93
2019-01-16T20:41:55.432Z,10.73
2019-01-16T20:44:56.035Z,8.00
2019-01-16T20:47:46.992Z,7.77
2019-01-16T20:50:44.912Z,8.37
2019-01-16T20:53:39.340Z,7.70
2019-01-16T20:56:30.761Z,7.93
2019-01-16T20:59:22.002Z,8.47
2019-01-16T21:02:08.826Z,9.97
2019-01-16T21:05:06.153Z,9.70
2019-01-16T21:07:57.329Z,11.10
2019-01-16T21:10:44.092Z,17.73
2019-01-16T21:13:34.065Z,8.40
2019-01-16T21:16:21.180Z,8.30
2019-01-16T21:19:09.377Z,9.07
2019-01-16T21:21:56.165Z,8.13
2019-01-16T21:24:40.204Z,8.87
2019-01-16T21:27:27.205Z,8.73
2019-01-16T21:30:27.653Z,9.10
2019-01-16T21:33:14.878Z,11.27
2019-01-16T21:36:02.049Z,11.40
2019-01-16T21:38:49.800Z,10.27
2019-01-16T21:41:36.588Z,10.33
2019-01-16T21:44:37.177Z,10.90
2019-01-16T21:47:21.728Z,9.40
2019-01-16T21:50:09.882Z,9.13
2019-01-16T21:53:04.564Z,11.17
2019-01-16T21:55:51.481Z,11.83
2019-01-16T21:58:38.595Z,7.03
2019-01-16T22:01:35.744Z,6.90
2019-01-16T22:04:33.355Z,6.63
2019-01-16T22:07:30.547Z,6.83
2019-01-16T22:10:17.984Z,6.83
2019-01-16T22:13:01.386Z,6.87
2019-01-16T22:16:01.849Z,7.20
2019-01-16T22:18:55.151Z,7.30
2019-01-16T22:21:43.367Z,6.83
2019-01-16T22:24:29.169Z,7.33
2019-01-16T22:27:17.344Z,8.07
2019-01-16T22:30:04.441Z,8.40
2019-01-16T22:32:56.117Z,9.87
2019-01-16T22:35:44.315Z,12.30
2019-01-16T22:38:35.701Z,9.87
2019-01-16T22:41:16.462Z,6.73
2019-01-16T22:44:10.327Z,7.57
2019-01-16T22:46:51.624Z,7.13
2019-01-16T22:49:35.348Z,6.33
2019-01-16T22:52:22.676Z,5.73
2019-01-16T22:55:14.920Z,4.73
2019-01-16T22:58:03.101Z,5.30
2019-01-16T23:01:00.460Z,5.97
2019-01-16T23:03:48.631Z,7.60
2019-01-16T23:06:45.908Z,7.40
2019-01-16T23:09:52.474Z,7.67
2019-01-16T23:12:43.667Z,7.60
2019-01-16T23:15:44.225Z,12.13
2019-01-16T23:18:30.985Z,13.83
2019-01-16T23:21:25.284Z,12.53
2019-01-16T23:24:28.788Z,14.73
2019-01-16T23:27:19.891Z,16.63
2019-01-16T23:30:14.423Z,13.70
2019-01-16T23:33:10.433Z,13.73
2019-01-16T23:35:56.450Z,13.00
2019-01-16T23:38:44.693Z,10.53
2019-01-16T23:41:41.844Z,9.47
2019-01-16T23:44:28.969Z,9.50
2019-01-16T23:47:05.763Z,6.40
2019-01-16T23:49:52.931Z,5.40
2019-01-16T23:52:30.863Z,5.83
2019-01-16T23:55:22.153Z,5.20
2019-01-16T23:58:04.089Z,5.70
